createdAt,value
2022-08-28T00:02:21.411Z,21.20
2022-08-28T00:07:23.911Z,21.20
2022-08-28T00:12:27.249Z,21.20
2022-08-28T00:17:29.679Z,21.20
2022-08-28T00:22:32.193Z,21.10
2022-08-28T00:27:52.609Z,21.00
2022-08-28T00:32:58.380Z,21.00
2022-08-28T00:38:00.961Z,21.00
2022-08-28T00:43:06.231Z,21.00
2022-08-28T00:48:08.770Z,20.90
2022-08-28T00:53:11.407Z,20.80
2022-08-28T00:58:14.481Z,20.80
2022-08-28T01:03:17.095Z,20.80
2022-08-28T01:08:19.969Z,20.80
2022-08-28T01:13:25.092Z,20.70
2022-08-28T01:18:28.122Z,20.60
2022-08-28T01:23:51.751Z,20.50
2022-08-28T01:28:54.990Z,20.50
2022-08-28T01:33:59.312Z,20.50
2022-08-28T01:39:23.841Z,20.40
2022-08-28T01:44:27.907Z,20.40
2022-08-28T01:49:30.439Z,20.30
2022-08-28T01:54:32.908Z,20.30
2022-08-28T01:59:36.335Z,20.20
2022-08-28T02:04:38.819Z,20.20
2022-08-28T02:09:41.239Z,20.10
2022-08-28T02:14:43.657Z,20.10
2022-08-28T02:19:46.083Z,20.10
2022-08-28T02:24:48.510Z,19.90
2022-08-28T02:29:51.428Z,19.90
2022-08-28T02:34:54.786Z,19.80
2022-08-28T02:39:58.545Z,19.80
2022-08-28T02:45:01.614Z,19.70
2022-08-28T02:50:04.996Z,19.80
2022-08-28T02:55:09.284Z,19.70
2022-08-28T03:00:15.199Z,19.70
2022-08-28T03:05:21.091Z,19.70
2022-08-28T03:10:24.053Z,19.60
2022-08-28T03:15:26.462Z,19.60
2022-08-28T03:20:28.922Z,19.60
2022-08-28T03:25:31.368Z,19.60
2022-08-28T03:30:33.804Z,19.60
2022-08-28T03:35:37.718Z,19.50
2022-08-28T03:40:45.605Z,19.50
2022-08-28T03:46:02.798Z,19.40
2022-08-28T03:51:17.886Z,19.40
2022-08-28T03:56:24.822Z,19.50
2022-08-28T04:01:28.137Z,19.50
2022-08-28T04:06:30.853Z,19.50
2022-08-28T04:11:42.481Z,19.60
2022-08-28T04:16:45.128Z,19.70
2022-08-28T04:21:47.716Z,19.70
2022-08-28T04:26:50.683Z,19.70
2022-08-28T04:31:53.541Z,19.70
2022-08-28T04:36:56.054Z,19.90
2022-08-28T04:41:58.539Z,19.90
2022-08-28T04:47:01.447Z,20.00
2022-08-28T04:52:05.069Z,19.80
2022-08-28T04:57:07.622Z,19.90
2022-08-28T05:02:12.049Z,20.00
2022-08-28T05:07:14.910Z,20.10
2022-08-28T05:12:17.693Z,20.20
2022-08-28T05:17:20.159Z,20.40
2022-08-28T05:22:23.221Z,20.70
2022-08-28T05:27:25.755Z,20.80
2022-08-28T05:32:28.507Z,20.80
2022-08-28T05:37:30.952Z,21.20
2022-08-28T05:42:38.398Z,21.10
2022-08-28T05:47:41.681Z,21.20
2022-08-28T05:52:44.480Z,21.10
2022-08-28T05:57:46.910Z,21.30
2022-08-28T06:02:50.270Z,21.40
2022-08-28T06:07:53.100Z,21.60
2022-08-28T06:12:55.588Z,21.80
2022-08-28T06:17:58.735Z,22.10
2022-08-28T06:23:01.159Z,22.30
2022-08-28T06:28:03.966Z,22.40
2022-08-28T06:33:07.307Z,22.30
2022-08-28T06:38:10.753Z,22.20
2022-08-28T06:43:15.146Z,22.00
2022-08-28T06:48:20.248Z,22.10
2022-08-28T06:53:28.886Z,22.00
2022-08-28T06:58:32.085Z,21.90
2022-08-28T07:03:35.204Z,22.00
2022-08-28T07:08:38.875Z,22.00
2022-08-28T07:13:43.288Z,21.90
2022-08-28T07:18:48.657Z,22.00
2022-08-28T07:23:54.286Z,22.10
2022-08-28T07:28:57.801Z,22.00
2022-08-28T07:34:14.768Z,22.10
2022-08-28T07:39:17.291Z,22.10
2022-08-28T07:44:38.182Z,22.00
2022-08-28T07:49:43.589Z,22.20
2022-08-28T07:54:46.047Z,22.20
2022-08-28T07:59:49.730Z,22.20
2022-08-28T08:04:52.358Z,22.30
2022-08-28T08:09:54.756Z,22.40
2022-08-28T08:15:00.728Z,22.50
2022-08-28T08:20:04.091Z,22.60
2022-08-28T08:25:07.074Z,22.70
2022-08-28T08:30:10.641Z,22.70
2022-08-28T08:35:13.111Z,22.90
2022-08-28T08:40:19.263Z,23.00
2022-08-28T08:45:26.464Z,23.00
2022-08-28T08:50:32.389Z,22.90
2022-08-28T08:55:43.070Z,23.00
2022-08-28T09:01:09.700Z,23.30
2022-08-28T09:06:24.909Z,23.10
2022-08-28T09:11:43.024Z,23.20
2022-08-28T09:16:45.922Z,23.60
2022-08-28T09:21:50.221Z,23.70
2022-08-28T09:27:05.429Z,23.90
2022-08-28T09:32:32.637Z,24.10
2022-08-28T09:37:37.158Z,24.20
2022-08-28T09:42:58.113Z,24.20
2022-08-28T09:48:02.703Z,24.10
2022-08-28T09:53:14.374Z,23.90
2022-08-28T09:58:17.293Z,24.00
2022-08-28T10:03:30.794Z,24.10
2022-08-28T10:08:50.743Z,24.20
2022-08-28T10:14:26.349Z,24.30
2022-08-28T10:19:46.073Z,24.40
2022-08-28T10:25:12.600Z,24.30
2022-08-28T10:30:22.933Z,24.40
2022-08-28T10:35:57.950Z,24.40
2022-08-28T10:41:10.339Z,24.00
2022-08-28T10:46:16.914Z,24.30
2022-08-28T10:51:43.620Z,24.30
2022-08-28T10:56:56.615Z,24.00
2022-08-28T11:02:00.728Z,23.80
2022-08-28T11:07:11.387Z,23.60
2022-08-28T11:12:16.781Z,23.40
2022-08-28T11:17:22.349Z,23.30
2022-08-28T11:22:49.664Z,23.10
2022-08-28T11:28:12.321Z,23.10
2022-08-28T11:33:35.703Z,23.10
2022-08-28T11:38:40.879Z,23.10
2022-08-28T11:43:45.322Z,23.30
2022-08-28T11:48:50.840Z,23.20
2022-08-28T11:54:18.847Z,23.30
2022-08-28T11:59:36.247Z,23.00
2022-08-28T12:04:42.650Z,22.90
2022-08-28T12:09:47.764Z,22.80
2022-08-28T12:14:56.332Z,22.80
2022-08-28T12:20:29.594Z,22.60
2022-08-28T12:25:43.497Z,22.70
2022-08-28T12:30:58.403Z,22.90
2022-08-28T12:36:06.216Z,23.00
2022-08-28T12:41:17.193Z,23.10
2022-08-28T12:46:35.180Z,23.30
2022-08-28T12:51:38.150Z,23.40
2022-08-28T12:56:40.753Z,23.60
2022-08-28T13:01:44.851Z,23.80
2022-08-28T13:06:47.399Z,23.80
2022-08-28T13:11:51.478Z,24.00
2022-08-28T13:16:54.064Z,24.10
2022-08-28T13:22:09.866Z,23.80
2022-08-28T13:27:12.305Z,23.80
2022-08-28T13:32:18.069Z,23.60
2022-08-28T13:37:49.791Z,23.60
2022-08-28T13:43:00.215Z,23.60
2022-08-28T13:48:03.780Z,23.70
2022-08-28T13:53:11.425Z,23.80
2022-08-28T13:58:18.185Z,23.70
2022-08-28T14:03:36.641Z,23.70
2022-08-28T14:08:43.951Z,23.80
2022-08-28T14:13:55.390Z,23.60
2022-08-28T14:19:03.893Z,23.40
2022-08-28T14:24:07.998Z,23.20
2022-08-28T14:29:13.593Z,23.40
2022-08-28T14:34:19.709Z,23.30
2022-08-28T14:39:25.205Z,23.40
2022-08-28T14:44:27.695Z,23.30
2022-08-28T14:49:30.174Z,23.20
2022-08-28T14:54:32.712Z,23.20
2022-08-28T14:59:35.279Z,23.00
2022-08-28T15:04:38.260Z,23.00
2022-08-28T15:09:42.783Z,23.10
2022-08-28T15:14:54.630Z,23.10
2022-08-28T15:20:00.505Z,23.00
2022-08-28T15:25:03.581Z,23.30
2022-08-28T15:30:06.640Z,23.30
2022-08-28T15:35:09.472Z,23.40
2022-08-28T15:40:30.441Z,23.30
2022-08-28T15:45:37.568Z,23.10
2022-08-28T15:50:41.670Z,23.00
2022-08-28T15:55:45.732Z,23.00
2022-08-28T16:00:48.158Z,22.90
2022-08-28T16:05:50.762Z,22.50
2022-08-28T16:10:53.422Z,22.40
2022-08-28T16:15:55.965Z,22.20
2022-08-28T16:21:02.689Z,22.10
2022-08-28T16:26:08.557Z,22.00
2022-08-28T16:31:20.722Z,21.90
2022-08-28T16:36:25.274Z,21.70
2022-08-28T16:41:28.229Z,21.50
2022-08-28T16:46:31.712Z,21.60
2022-08-28T16:51:34.136Z,21.50
2022-08-28T16:56:36.730Z,21.40
2022-08-28T17:01:42.568Z,21.50
2022-08-28T17:06:45.664Z,21.60
2022-08-28T17:11:52.148Z,21.50
2022-08-28T17:16:54.840Z,21.50
2022-08-28T17:22:15.873Z,21.60
2022-08-28T17:27:22.620Z,21.40
2022-08-28T17:32:25.817Z,21.50
2022-08-28T17:37:28.504Z,21.50
2022-08-28T17:42:30.933Z,21.50
2022-08-28T17:47:33.491Z,21.30
2022-08-28T17:52:36.165Z,21.10
2022-08-28T17:57:39.219Z,21.10
2022-08-28T18:02:41.978Z,21.10
2022-08-28T18:07:44.686Z,20.90
2022-08-28T18:12:47.793Z,20.80
2022-08-28T18:17:50.602Z,20.70
2022-08-28T18:22:53.741Z,20.70
2022-08-28T18:27:56.285Z,20.60
2022-08-28T18:32:58.928Z,20.60
2022-08-28T18:38:01.686Z,20.50
2022-08-28T18:43:05.453Z,20.40
2022-08-28T18:48:10.712Z,20.30
2022-08-28T18:53:14.267Z,20.30
2022-08-28T18:58:17.384Z,20.30
2022-08-28T19:03:20.744Z,20.30
2022-08-28T19:08:25.116Z,20.10
2022-08-28T19:13:27.946Z,20.20
2022-08-28T19:18:31.643Z,20.00
2022-08-28T19:23:34.450Z,20.00
2022-08-28T19:28:37.167Z,20.10
2022-08-28T19:33:39.638Z,20.10
2022-08-28T19:38:42.584Z,20.00
2022-08-28T19:43:45.432Z,20.00
2022-08-28T19:48:49.881Z,19.90
2022-08-28T19:53:58.231Z,19.80
2022-08-28T19:59:02.993Z,19.90
2022-08-28T20:04:08.391Z,19.90
2022-08-28T20:09:13.066Z,20.00
2022-08-28T20:14:17.812Z,19.90
2022-08-28T20:19:21.314Z,19.90
2022-08-28T20:24:24.269Z,19.90
2022-08-28T20:29:29.412Z,19.90
2022-08-28T20:34:32.165Z,20.00
2022-08-28T20:39:37.052Z,19.70
2022-08-28T20:44:39.895Z,19.80
2022-08-28T20:49:42.393Z,19.70
2022-08-28T20:54:46.098Z,19.70
2022-08-28T20:59:50.628Z,19.70
2022-08-28T21:04:53.993Z,19.70
2022-08-28T21:10:05.939Z,19.70
2022-08-28T21:15:12.625Z,19.70
2022-08-28T21:20:16.178Z,19.70
2022-08-28T21:25:20.762Z,19.60
2022-08-28T21:30:23.458Z,19.50
2022-08-28T21:35:31.763Z,19.50
2022-08-28T21:40:35.733Z,19.40
2022-08-28T21:45:38.337Z,19.40
2022-08-28T21:50:43.011Z,19.40
2022-08-28T21:55:55.626Z,19.50
2022-08-28T22:00:58.423Z,19.50
2022-08-28T22:06:00.871Z,19.40
2022-08-28T22:11:04.099Z,19.30
2022-08-28T22:16:07.167Z,19.30
2022-08-28T22:21:33.116Z,19.30
2022-08-28T22:26:35.853Z,19.20
2022-08-28T22:31:43.918Z,19.10
2022-08-28T22:36:48.628Z,18.90
2022-08-28T22:41:51.317Z,18.90
2022-08-28T22:46:53.829Z,18.80
2022-08-28T22:51:56.268Z,18.70
2022-08-28T22:56:58.713Z,18.80
2022-08-28T23:02:01.529Z,18.80
2022-08-28T23:07:05.501Z,18.70
2022-08-28T23:12:08.712Z,18.60
2022-08-28T23:17:11.261Z,18.50
2022-08-28T23:22:14.740Z,18.40
2022-08-28T23:27:35.753Z,18.40
2022-08-28T23:32:39.476Z,18.30
2022-08-28T23:37:46.694Z,18.20
2022-08-28T23:42:52.588Z,18.10
2022-08-28T23:47:55.010Z,18.00
2022-08-28T23:52:58.747Z,17.90
2022-08-28T23:58:01.206Z,17.80
